sensor_id;sensor_type;location;lat;lon;timestamp;temperature;humidity
18163;DHT22;9206;50.994;4.538;2023-03-14T00:02:16;11.30;99.90
18163;DHT22;9206;50.994;4.538;2023-03-14T00:05:08;11.30;99.90
18163;DHT22;9206;50.994;4.538;2023-03-14T00:08:05;11.10;99.90
18163;DHT22;9206;50.994;4.538;2023-03-14T00:10:53;11.10;99.90
18163;DHT22;9206;50.994;4.538;2023-03-14T00:13:42;11.00;99.90
18163;DHT22;9206;50.994;4.538;2023-03-14T00:16:39;11.00;99.90
18163;DHT22;9206;50.994;4.538;2023-03-14T00:19:27;10.90;99.90
18163;DHT22;9206;50.994;4.538;2023-03-14T00:22:16;10.90;99.90
18163;DHT22;9206;50.994;4.538;2023-03-14T00:25:05;10.90;99.90
18163;DHT22;9206;50.994;4.538;2023-03-14T00:27:59;10.80;99.90
18163;DHT22;9206;50.994;4.538;2023-03-14T00:30:49;10.80;99.90
18163;DHT22;9206;50.994;4.538;2023-03-14T00:33:40;10.90;99.90
18163;DHT22;9206;50.994;4.538;2023-03-14T00:36:29;10.90;99.90
18163;DHT22;9206;50.994;4.538;2023-03-14T00:39:18;10.90;99.90
18163;DHT22;9206;50.994;4.538;2023-03-14T00:42:14;10.90;99.90
18163;DHT22;9206;50.994;4.538;2023-03-14T00:45:04;10.90;99.90
18163;DHT22;9206;50.994;4.538;2023-03-14T00:47:56;10.90;99.90
18163;DHT22;9206;50.994;4.538;2023-03-14T00:50:50;10.80;99.90
18163;DHT22;9206;50.994;4.538;2023-03-14T00:53:44;10.80;99.90
18163;DHT22;9206;50.994;4.538;2023-03-14T00:56:36;10.80;99.90
18163;DHT22;9206;50.994;4.538;2023-03-14T00:59:23;10.70;99.90
18163;DHT22;9206;50.994;4.538;2023-03-14T01:02:14;10.70;99.90
18163;DHT22;9206;50.994;4.538;2023-03-14T01:05:01;10.70;99.90
18163;DHT22;9206;50.994;4.538;2023-03-14T01:07:55;10.70;99.90
18163;DHT22;9206;50.994;4.538;2023-03-14T01:10:44;10.80;99.90
18163;DHT22;9206;50.994;4.538;2023-03-14T01:13:33;10.70;99.90
18163;DHT22;9206;50.994;4.538;2023-03-14T01:16:28;10.80;99.90
18163;DHT22;9206;50.994;4.538;2023-03-14T01:19:17;10.90;99.90
18163;DHT22;9206;50.994;4.538;2023-03-14T01:22:04;10.90;99.90
18163;DHT22;9206;50.994;4.538;2023-03-14T01:24:51;10.90;99.90
18163;DHT22;9206;50.994;4.538;2023-03-14T01:27:45;10.90;99.90
18163;DHT22;9206;50.994;4.538;2023-03-14T01:30:33;10.80;99.90
18163;DHT22;9206;50.994;4.538;2023-03-14T01:33:24;10.80;99.90
18163;DHT22;9206;50.994;4.538;2023-03-14T01:36:12;10.80;99.90
18163;DHT22;9206;50.994;4.538;2023-03-14T01:39:00;10.80;99.90
18163;DHT22;9206;50.994;4.538;2023-03-14T01:41:50;10.80;99.90
18163;DHT22;9206;50.994;4.538;2023-03-14T01:44:50;10.70;99.90
18163;DHT22;9206;50.994;4.538;2023-03-14T01:47:45;10.70;99.90
18163;DHT22;9206;50.994;4.538;2023-03-14T01:50:38;10.70;99.90
18163;DHT22;9206;50.994;4.538;2023-03-14T01:53:26;10.70;99.90
18163;DHT22;9206;50.994;4.538;2023-03-14T01:56:20;10.70;99.90
18163;DHT22;9206;50.994;4.538;2023-03-14T01:59:08;10.70;99.90
18163;DHT22;9206;50.994;4.538;2023-03-14T02:02:05;10.70;99.90
18163;DHT22;9206;50.994;4.538;2023-03-14T02:04:58;10.60;99.90
18163;DHT22;9206;50.994;4.538;2023-03-14T02:07:53;10.50;99.90
18163;DHT22;9206;50.994;4.538;2023-03-14T02:10:48;10.50;99.90
18163;DHT22;9206;50.994;4.538;2023-03-14T02:13:43;10.50;99.90
18163;DHT22;9206;50.994;4.538;2023-03-14T02:16:32;10.50;99.90
18163;DHT22;9206;50.994;4.538;2023-03-14T02:19:39;10.50;99.90
18163;DHT22;9206;50.994;4.538;2023-03-14T02:22:38;10.40;99.90
18163;DHT22;9206;50.994;4.538;2023-03-14T02:25:39;10.40;99.90
18163;DHT22;9206;50.994;4.538;2023-03-14T02:28:31;10.40;99.90
18163;DHT22;9206;50.994;4.538;2023-03-14T02:31:22;10.40;99.90
18163;DHT22;9206;50.994;4.538;2023-03-14T02:34:11;10.40;99.90
18163;DHT22;9206;50.994;4.538;2023-03-14T02:37:05;10.40;99.90
18163;DHT22;9206;50.994;4.538;2023-03-14T02:39:54;10.40;99.90
18163;DHT22;9206;50.994;4.538;2023-03-14T02:42:47;10.40;99.90
18163;DHT22;9206;50.994;4.538;2023-03-14T02:45:41;10.20;99.90
18163;DHT22;9206;50.994;4.538;2023-03-14T02:48:35;10.20;99.90
18163;DHT22;9206;50.994;4.538;2023-03-14T02:51:25;10.10;99.90
18163;DHT22;9206;50.994;4.538;2023-03-14T02:54:14;10.00;99.90
18163;DHT22;9206;50.994;4.538;2023-03-14T02:57:08;10.00;99.90
18163;DHT22;9206;50.994;4.538;2023-03-14T03:00:02;10.00;99.90
18163;DHT22;9206;50.994;4.538;2023-03-14T03:02:55;9.90;99.90
18163;DHT22;9206;50.994;4.538;2023-03-14T03:05:42;9.90;99.90
18163;DHT22;9206;50.994;4.538;2023-03-14T03:08:33;9.70;99.90
18163;DHT22;9206;50.994;4.538;2023-03-14T03:11:20;9.60;99.90
18163;DHT22;9206;50.994;4.538;2023-03-14T03:14:11;9.60;99.90
18163;DHT22;9206;50.994;4.538;2023-03-14T03:17:00;9.60;99.90
18163;DHT22;9206;50.994;4.538;2023-03-14T03:19:49;9.50;99.90
18163;DHT22;9206;50.994;4.538;2023-03-14T03:22:37;9.60;99.90
18163;DHT22;9206;50.994;4.538;2023-03-14T03:25:27;9.60;99.90
18163;DHT22;9206;50.994;4.538;2023-03-14T03:28:20;9.50;99.90
18163;DHT22;9206;50.994;4.538;2023-03-14T03:31:10;9.60;99.90
18163;DHT22;9206;50.994;4.538;2023-03-14T03:33:57;9.50;99.90
18163;DHT22;9206;50.994;4.538;2023-03-14T03:37:13;9.50;99.90
18163;DHT22;9206;50.994;4.538;2023-03-14T03:40:00;9.50;99.90
18163;DHT22;9206;50.994;4.538;2023-03-14T03:42:51;9.60;99.90
18163;DHT22;9206;50.994;4.538;2023-03-14T03:45:41;9.60;99.90
18163;DHT22;9206;50.994;4.538;2023-03-14T03:48:29;9.60;99.90
18163;DHT22;9206;50.994;4.538;2023-03-14T03:51:23;9.60;99.90
18163;DHT22;9206;50.994;4.538;2023-03-14T03:54:25;9.60;99.90
18163;DHT22;9206;50.994;4.538;2023-03-14T03:57:14;9.60;99.90
18163;DHT22;9206;50.994;4.538;2023-03-14T04:00:03;9.70;99.90
18163;DHT22;9206;50.994;4.538;2023-03-14T04:02:59;9.70;99.90
18163;DHT22;9206;50.994;4.538;2023-03-14T04:05:57;9.70;99.90
18163;DHT22;9206;50.994;4.538;2023-03-14T04:08:50;9.80;99.90
18163;DHT22;9206;50.994;4.538;2023-03-14T04:11:39;9.80;99.90
18163;DHT22;9206;50.994;4.538;2023-03-14T04:14:29;9.80;99.90
18163;DHT22;9206;50.994;4.538;2023-03-14T04:17:17;9.90;99.90
18163;DHT22;9206;50.994;4.538;2023-03-14T04:20:06;9.90;99.90
18163;DHT22;9206;50.994;4.538;2023-03-14T04:23:02;9.90;99.90
18163;DHT22;9206;50.994;4.538;2023-03-14T04:25:50;10.00;99.90
18163;DHT22;9206;50.994;4.538;2023-03-14T04:28:39;10.00;99.90
18163;DHT22;9206;50.994;4.538;2023-03-14T04:31:26;10.00;99.90
18163;DHT22;9206;50.994;4.538;2023-03-14T04:34:14;10.00;99.90
18163;DHT22;9206;50.994;4.538;2023-03-14T04:37:03;10.10;99.90
18163;DHT22;9206;50.994;4.538;2023-03-14T04:39:57;10.10;99.90
18163;DHT22;9206;50.994;4.538;2023-03-14T04:42:44;10.10;99.90
18163;DHT22;9206;50.994;4.538;2023-03-14T04:45:43;10.10;99.90
18163;DHT22;9206;50.994;4.538;2023-03-14T04:48:34;10.20;99.90
18163;DHT22;9206;50.994;4.538;2023-03-14T04:51:26;10.10;99.90
18163;DHT22;9206;50.994;4.538;2023-03-14T04:54:14;10.20;99.90
18163;DHT22;9206;50.994;4.538;2023-03-14T04:57:02;10.20;99.90
18163;DHT22;9206;50.994;4.538;2023-03-14T04:59:49;10.20;99.90
18163;DHT22;9206;50.994;4.538;2023-03-14T05:02:39;10.20;99.90
18163;DHT22;9206;50.994;4.538;2023-03-14T05:05:37;10.10;99.90
18163;DHT22;9206;50.994;4.538;2023-03-14T05:08:24;10.10;99.90
18163;DHT22;9206;50.994;4.538;2023-03-14T05:11:14;10.00;99.90
18163;DHT22;9206;50.994;4.538;2023-03-14T05:14:02;10.00;99.90
18163;DHT22;9206;50.994;4.538;2023-03-14T05:20:11;9.90;99.90
18163;DHT22;9206;50.994;4.538;2023-03-14T05:23:00;10.00;99.90
18163;DHT22;9206;50.994;4.538;2023-03-14T05:25:47;10.00;99.90
18163;DHT22;9206;50.994;4.538;2023-03-14T05:28:40;10.00;99.90
18163;DHT22;9206;50.994;4.538;2023-03-14T05:31:29;10.00;99.90
18163;DHT22;9206;50.994;4.538;2023-03-14T05:34:29;9.90;99.90
18163;DHT22;9206;50.994;4.538;2023-03-14T05:37:20;10.00;99.90
18163;DHT22;9206;50.994;4.538;2023-03-14T05:40:08;10.00;99.90
18163;DHT22;9206;50.994;4.538;2023-03-14T05:42:58;10.00;99.90
18163;DHT22;9206;50.994;4.538;2023-03-14T05:45:51;10.00;99.90
18163;DHT22;9206;50.994;4.538;2023-03-14T05:48:44;10.10;99.90
18163;DHT22;9206;50.994;4.538;2023-03-14T05:51:32;10.10;99.90
18163;DHT22;9206;50.994;4.538;2023-03-14T05:54:21;10.10;99.90
18163;DHT22;9206;50.994;4.538;2023-03-14T05:57:09;10.10;99.90
18163;DHT22;9206;50.994;4.538;2023-03-14T05:59:58;10.10;99.90
18163;DHT22;9206;50.994;4.538;2023-03-14T06:02:51;10.10;99.90
18163;DHT22;9206;50.994;4.538;2023-03-14T06:05:42;10.20;99.90
18163;DHT22;9206;50.994;4.538;2023-03-14T06:08:30;10.10;99.90
18163;DHT22;9206;50.994;4.538;2023-03-14T06:11:25;10.20;99.90
18163;DHT22;9206;50.994;4.538;2023-03-14T06:14:15;10.30;99.90
18163;DHT22;9206;50.994;4.538;2023-03-14T06:17:09;10.30;99.90
18163;DHT22;9206;50.994;4.538;2023-03-14T06:19:57;10.30;99.90
18163;DHT22;9206;50.994;4.538;2023-03-14T06:22:47;10.30;99.90
18163;DHT22;9206;50.994;4.538;2023-03-14T06:25:40;10.20;99.90
18163;DHT22;9206;50.994;4.538;2023-03-14T06:28:35;10.20;99.90
18163;DHT22;9206;50.994;4.538;2023-03-14T06:31:48;10.10;99.90
18163;DHT22;9206;50.994;4.538;2023-03-14T06:34:37;10.10;99.90
18163;DHT22;9206;50.994;4.538;2023-03-14T06:37:28;10.10;99.90
18163;DHT22;9206;50.994;4.538;2023-03-14T06:40:19;10.10;99.90
18163;DHT22;9206;50.994;4.538;2023-03-14T06:43:08;10.00;99.90
18163;DHT22;9206;50.994;4.538;2023-03-14T06:46:03;10.10;99.90
18163;DHT22;9206;50.994;4.538;2023-03-14T06:48:54;10.10;99.90
18163;DHT22;9206;50.994;4.538;2023-03-14T06:51:44;10.00;99.90
18163;DHT22;9206;50.994;4.538;2023-03-14T06:54:52;10.00;99.90
18163;DHT22;9206;50.994;4.538;2023-03-14T06:57:42;9.70;99.90
18163;DHT22;9206;50.994;4.538;2023-03-14T07:00:33;9.40;99.90
18163;DHT22;9206;50.994;4.538;2023-03-14T07:03:25;9.10;99.90
18163;DHT22;9206;50.994;4.538;2023-03-14T07:06:14;8.80;99.90
18163;DHT22;9206;50.994;4.538;2023-03-14T07:09:04;8.70;99.90
18163;DHT22;9206;50.994;4.538;2023-03-14T07:11:51;8.50;99.90
18163;DHT22;9206;50.994;4.538;2023-03-14T07:14:39;8.40;99.90
18163;DHT22;9206;50.994;4.538;2023-03-14T07:17:29;8.30;99.90
18163;DHT22;9206;50.994;4.538;2023-03-14T07:20:18;8.20;99.90
18163;DHT22;9206;50.994;4.538;2023-03-14T07:23:06;8.00;99.90
18163;DHT22;9206;50.994;4.538;2023-03-14T07:25:54;7.90;99.90
18163;DHT22;9206;50.994;4.538;2023-03-14T07:28:44;7.90;99.90
18163;DHT22;9206;50.994;4.538;2023-03-14T07:31:33;7.90;99.90
18163;DHT22;9206;50.994;4.538;2023-03-14T07:34:24;7.80;99.90
18163;DHT22;9206;50.994;4.538;2023-03-14T07:37:18;7.80;99.90
18163;DHT22;9206;50.994;4.538;2023-03-14T07:40:07;7.90;99.90
18163;DHT22;9206;50.994;4.538;2023-03-14T07:42:56;7.90;99.90
18163;DHT22;9206;50.994;4.538;2023-03-14T07:45:45;7.80;99.90
18163;DHT22;9206;50.994;4.538;2023-03-14T07:48:34;7.80;99.90
18163;DHT22;9206;50.994;4.538;2023-03-14T07:51:27;7.80;99.90
18163;DHT22;9206;50.994;4.538;2023-03-14T07:54:22;7.70;99.90
18163;DHT22;9206;50.994;4.538;2023-03-14T07:57:10;7.70;99.90
18163;DHT22;9206;50.994;4.538;2023-03-14T08:00:05;7.70;99.90
18163;DHT22;9206;50.994;4.538;2023-03-14T08:02:59;7.80;99.90
18163;DHT22;9206;50.994;4.538;2023-03-14T08:05:49;7.90;99.90
18163;DHT22;9206;50.994;4.538;2023-03-14T08:08:42;8.00;99.90
18163;DHT22;9206;50.994;4.538;2023-03-14T08:11:31;8.10;99.90
18163;DHT22;9206;50.994;4.538;2023-03-14T08:14:24;8.20;99.90
18163;DHT22;9206;50.994;4.538;2023-03-14T08:17:15;8.10;99.90
18163;DHT22;9206;50.994;4.538;2023-03-14T08:20:02;8.10;99.90
18163;DHT22;9206;50.994;4.538;2023-03-14T08:23:01;8.00;99.90
18163;DHT22;9206;50.994;4.538;2023-03-14T08:25:55;8.10;99.90
18163;DHT22;9206;50.994;4.538;2023-03-14T08:28:45;8.10;99.90
18163;DHT22;9206;50.994;4.538;2023-03-14T08:31:36;8.10;99.90
18163;DHT22;9206;50.994;4.538;2023-03-14T08:34:29;8.10;99.90
18163;DHT22;9206;50.994;4.538;2023-03-14T08:37:16;8.10;99.90
18163;DHT22;9206;50.994;4.538;2023-03-14T08:40:06;8.10;99.90
18163;DHT22;9206;50.994;4.538;2023-03-14T08:42:55;8.20;99.90
18163;DHT22;9206;50.994;4.538;2023-03-14T08:45:50;8.20;99.90
18163;DHT22;9206;50.994;4.538;2023-03-14T08:48:41;8.30;99.90
18163;DHT22;9206;50.994;4.538;2023-03-14T08:51:34;8.30;99.90
18163;DHT22;9206;50.994;4.538;2023-03-14T08:54:23;8.50;99.90
18163;DHT22;9206;50.994;4.538;2023-03-14T08:57:10;8.50;99.90
18163;DHT22;9206;50.994;4.538;2023-03-14T08:59:58;8.50;99.90
18163;DHT22;9206;50.994;4.538;2023-03-14T09:02:50;8.50;99.90
18163;DHT22;9206;50.994;4.538;2023-03-14T09:05:38;8.70;99.90
18163;DHT22;9206;50.994;4.538;2023-03-14T09:08:25;8.90;99.90
18163;DHT22;9206;50.994;4.538;2023-03-14T09:11:13;9.10;99.90
18163;DHT22;9206;50.994;4.538;2023-03-14T09:14:02;9.10;99.90
18163;DHT22;9206;50.994;4.538;2023-03-14T09:16:49;9.00;99.90
18163;DHT22;9206;50.994;4.538;2023-03-14T09:19:39;9.00;99.90
18163;DHT22;9206;50.994;4.538;2023-03-14T09:22:26;8.80;99.90
18163;DHT22;9206;50.994;4.538;2023-03-14T09:25:13;8.60;99.90
18163;DHT22;9206;50.994;4.538;2023-03-14T09:28:03;8.40;99.90
18163;DHT22;9206;50.994;4.538;2023-03-14T09:30:51;8.30;99.90
18163;DHT22;9206;50.994;4.538;2023-03-14T09:33:38;8.10;99.90
18163;DHT22;9206;50.994;4.538;2023-03-14T09:36:27;8.20;99.90
18163;DHT22;9206;50.994;4.538;2023-03-14T09:39:25;8.20;99.90
18163;DHT22;9206;50.994;4.538;2023-03-14T09:42:15;8.30;99.90
18163;DHT22;9206;50.994;4.538;2023-03-14T09:45:09;8.50;99.90
18163;DHT22;9206;50.994;4.538;2023-03-14T09:48:02;8.90;99.90
18163;DHT22;9206;50.994;4.538;2023-03-14T09:50:51;9.00;99.90
18163;DHT22;9206;50.994;4.538;2023-03-14T09:53:42;8.90;99.90
18163;DHT22;9206;50.994;4.538;2023-03-14T09:56:32;8.90;99.90
18163;DHT22;9206;50.994;4.538;2023-03-14T09:59:23;8.70;99.90
18163;DHT22;9206;50.994;4.538;2023-03-14T10:02:18;8.70;99.90
18163;DHT22;9206;50.994;4.538;2023-03-14T10:05:15;8.50;99.90
18163;DHT22;9206;50.994;4.538;2023-03-14T10:08:03;8.30;99.90
18163;DHT22;9206;50.994;4.538;2023-03-14T10:10:52;8.20;99.90
18163;DHT22;9206;50.994;4.538;2023-03-14T10:13:49;8.30;99.90
18163;DHT22;9206;50.994;4.538;2023-03-14T10:16:41;8.20;99.90
18163;DHT22;9206;50.994;4.538;2023-03-14T10:19:29;8.10;99.90
18163;DHT22;9206;50.994;4.538;2023-03-14T10:22:20;8.10;99.90
18163;DHT22;9206;50.994;4.538;2023-03-14T10:25:26;7.90;99.90
18163;DHT22;9206;50.994;4.538;2023-03-14T10:28:26;7.90;99.90
18163;DHT22;9206;50.994;4.538;2023-03-14T10:31:15;7.90;99.90
18163;DHT22;9206;50.994;4.538;2023-03-14T10:34:05;7.90;99.90
18163;DHT22;9206;50.994;4.538;2023-03-14T10:36:54;7.70;99.90
18163;DHT22;9206;50.994;4.538;2023-03-14T10:39:46;7.70;99.90
18163;DHT22;9206;50.994;4.538;2023-03-14T10:42:41;7.80;99.90
18163;DHT22;9206;50.994;4.538;2023-03-14T10:45:34;7.80;99.90
18163;DHT22;9206;50.994;4.538;2023-03-14T10:48:30;7.70;99.90
18163;DHT22;9206;50.994;4.538;2023-03-14T10:51:26;7.60;99.90
18163;DHT22;9206;50.994;4.538;2023-03-14T10:54:21;7.50;99.90
18163;DHT22;9206;50.994;4.538;2023-03-14T10:57:31;7.10;99.90
18163;DHT22;9206;50.994;4.538;2023-03-14T11:00:20;7.00;99.90
18163;DHT22;9206;50.994;4.538;2023-03-14T11:03:12;6.90;99.90
18163;DHT22;9206;50.994;4.538;2023-03-14T11:06:12;6.80;99.90
18163;DHT22;9206;50.994;4.538;2023-03-14T11:09:10;6.70;99.90
18163;DHT22;9206;50.994;4.538;2023-03-14T11:12:06;6.70;99.90
18163;DHT22;9206;50.994;4.538;2023-03-14T11:15:04;6.60;99.90
18163;DHT22;9206;50.994;4.538;2023-03-14T11:21:29;6.80;99.90
18163;DHT22;9206;50.994;4.538;2023-03-14T11:27:41;7.30;99.90
18163;DHT22;9206;50.994;4.538;2023-03-14T11:30:34;7.60;99.90
18163;DHT22;9206;50.994;4.538;2023-03-14T11:33:28;7.90;99.90
18163;DHT22;9206;50.994;4.538;2023-03-14T11:36:27;8.10;99.90
18163;DHT22;9206;50.994;4.538;2023-03-14T11:39:20;8.10;99.90
18163;DHT22;9206;50.994;4.538;2023-03-14T11:42:11;8.00;99.90
18163;DHT22;9206;50.994;4.538;2023-03-14T11:45:04;7.80;99.90
18163;DHT22;9206;50.994;4.538;2023-03-14T11:48:07;7.60;99.90
18163;DHT22;9206;50.994;4.538;2023-03-14T11:51:21;7.50;99.90
18163;DHT22;9206;50.994;4.538;2023-03-14T11:54:16;7.50;99.90
18163;DHT22;9206;50.994;4.538;2023-03-14T11:57:12;7.70;99.90
18163;DHT22;9206;50.994;4.538;2023-03-14T12:00:16;7.90;99.90
18163;DHT22;9206;50.994;4.538;2023-03-14T12:03:09;7.80;99.90
18163;DHT22;9206;50.994;4.538;2023-03-14T12:06:06;7.70;99.90
18163;DHT22;9206;50.994;4.538;2023-03-14T12:09:02;7.50;99.90
18163;DHT22;9206;50.994;4.538;2023-03-14T12:11:53;7.50;99.90
18163;DHT22;9206;50.994;4.538;2023-03-14T12:14:52;7.20;99.90
18163;DHT22;9206;50.994;4.538;2023-03-14T12:17:46;7.10;99.90
18163;DHT22;9206;50.994;4.538;2023-03-14T12:20:51;6.80;99.90
18163;DHT22;9206;50.994;4.538;2023-03-14T12:23:48;6.70;99.90
18163;DHT22;9206;50.994;4.538;2023-03-14T12:26:51;6.70;99.90
18163;DHT22;9206;50.994;4.538;2023-03-14T12:30:03;6.80;99.90
18163;DHT22;9206;50.994;4.538;2023-03-14T12:33:32;7.00;99.90
18163;DHT22;9206;50.994;4.538;2023-03-14T12:39:50;7.50;99.90
18163;DHT22;9206;50.994;4.538;2023-03-14T12:42:57;7.80;99.90
18163;DHT22;9206;50.994;4.538;2023-03-14T12:46:07;8.10;99.90
18163;DHT22;9206;50.994;4.538;2023-03-14T12:49:04;8.20;99.90
18163;DHT22;9206;50.994;4.538;2023-03-14T12:51:58;8.30;99.90
18163;DHT22;9206;50.994;4.538;2023-03-14T12:54:57;8.40;99.90
18163;DHT22;9206;50.994;4.538;2023-03-14T12:57:53;8.50;99.90
18163;DHT22;9206;50.994;4.538;2023-03-14T13:00:51;8.60;99.90
18163;DHT22;9206;50.994;4.538;2023-03-14T13:03:45;8.50;99.90
18163;DHT22;9206;50.994;4.538;2023-03-14T13:06:51;8.60;99.90
18163;DHT22;9206;50.994;4.538;2023-03-14T13:10:00;8.40;99.90
18163;DHT22;9206;50.994;4.538;2023-03-14T13:12:51;7.90;99.90
18163;DHT22;9206;50.994;4.538;2023-03-14T13:15:44;7.30;99.90
18163;DHT22;9206;50.994;4.538;2023-03-14T13:18:41;7.10;99.90
18163;DHT22;9206;50.994;4.538;2023-03-14T13:21:35;6.90;99.90
18163;DHT22;9206;50.994;4.538;2023-03-14T13:24:27;6.90;99.90
18163;DHT22;9206;50.994;4.538;2023-03-14T13:27:20;7.10;99.90
18163;DHT22;9206;50.994;4.538;2023-03-14T13:30:23;7.20;99.90
18163;DHT22;9206;50.994;4.538;2023-03-14T13:33:17;7.30;99.90
18163;DHT22;9206;50.994;4.538;2023-03-14T13:36:10;7.50;99.90
18163;DHT22;9206;50.994;4.538;2023-03-14T13:39:00;7.50;99.90
18163;DHT22;9206;50.994;4.538;2023-03-14T13:41:51;7.50;99.90
18163;DHT22;9206;50.994;4.538;2023-03-14T13:44:46;7.50;99.90
18163;DHT22;9206;50.994;4.538;2023-03-14T13:47:38;7.60;99.90
18163;DHT22;9206;50.994;4.538;2023-03-14T13:50:33;7.70;99.90
18163;DHT22;9206;50.994;4.538;2023-03-14T13:53:25;7.90;99.90
18163;DHT22;9206;50.994;4.538;2023-03-14T13:56:19;7.90;99.90
18163;DHT22;9206;50.994;4.538;2023-03-14T13:59:22;8.00;99.90
18163;DHT22;9206;50.994;4.538;2023-03-14T14:02:13;8.10;99.90
18163;DHT22;9206;50.994;4.538;2023-03-14T14:05:01;8.20;99.90
18163;DHT22;9206;50.994;4.538;2023-03-14T14:07:51;8.30;99.90
18163;DHT22;9206;50.994;4.538;2023-03-14T14:10:47;8.50;99.90
18163;DHT22;9206;50.994;4.538;2023-03-14T14:13:35;8.70;99.90
18163;DHT22;9206;50.994;4.538;2023-03-14T14:16:29;8.70;99.90
18163;DHT22;9206;50.994;4.538;2023-03-14T14:19:22;8.80;99.90
18163;DHT22;9206;50.994;4.538;2023-03-14T14:22:10;8.90;99.90
18163;DHT22;9206;50.994;4.538;2023-03-14T14:24:59;8.80;99.90
18163;DHT22;9206;50.994;4.538;2023-03-14T14:27:53;8.70;99.90
18163;DHT22;9206;50.994;4.538;2023-03-14T14:30:43;8.60;99.90
18163;DHT22;9206;50.994;4.538;2023-03-14T14:33:40;8.50;99.90
18163;DHT22;9206;50.994;4.538;2023-03-14T14:36:39;8.20;99.90
18163;DHT22;9206;50.994;4.538;2023-03-14T14:39:47;8.00;99.90
18163;DHT22;9206;50.994;4.538;2023-03-14T14:42:42;7.60;99.90
18163;DHT22;9206;50.994;4.538;2023-03-14T14:45:35;7.30;99.90
18163;DHT22;9206;50.994;4.538;2023-03-14T14:48:28;7.10;99.90
18163;DHT22;9206;50.994;4.538;2023-03-14T14:51:32;6.90;99.90
18163;DHT22;9206;50.994;4.538;2023-03-14T14:54:32;6.80;99.90
18163;DHT22;9206;50.994;4.538;2023-03-14T14:57:24;6.80;99.90
18163;DHT22;9206;50.994;4.538;2023-03-14T15:00:22;6.80;99.90
18163;DHT22;9206;50.994;4.538;2023-03-14T15:03:14;6.80;99.90
18163;DHT22;9206;50.994;4.538;2023-03-14T15:06:02;6.90;99.90
18163;DHT22;9206;50.994;4.538;2023-03-14T15:08:55;6.90;99.90
18163;DHT22;9206;50.994;4.538;2023-03-14T15:11:44;7.00;99.90
18163;DHT22;9206;50.994;4.538;2023-03-14T15:14:32;7.20;99.90
18163;DHT22;9206;50.994;4.538;2023-03-14T15:17:23;7.30;99.90
18163;DHT22;9206;50.994;4.538;2023-03-14T15:20:13;7.30;99.90
18163;DHT22;9206;50.994;4.538;2023-03-14T15:23:01;7.40;99.90
18163;DHT22;9206;50.994;4.538;2023-03-14T15:25:54;7.50;99.90
18163;DHT22;9206;50.994;4.538;2023-03-14T15:28:41;7.50;99.90
18163;DHT22;9206;50.994;4.538;2023-03-14T15:31:40;7.50;99.90
18163;DHT22;9206;50.994;4.538;2023-03-14T15:34:39;7.60;99.90
18163;DHT22;9206;50.994;4.538;2023-03-14T15:37:28;7.60;99.90
18163;DHT22;9206;50.994;4.538;2023-03-14T15:40:27;7.60;99.90
18163;DHT22;9206;50.994;4.538;2023-03-14T15:43:34;7.50;99.90
18163;DHT22;9206;50.994;4.538;2023-03-14T15:46:24;7.40;99.90
18163;DHT22;9206;50.994;4.538;2023-03-14T15:49:14;7.30;99.90
18163;DHT22;9206;50.994;4.538;2023-03-14T15:52:03;7.20;99.90
18163;DHT22;9206;50.994;4.538;2023-03-14T15:54:52;7.10;99.90
18163;DHT22;9206;50.994;4.538;2023-03-14T15:57:41;7.00;99.90
18163;DHT22;9206;50.994;4.538;2023-03-14T16:00:30;6.90;99.90
18163;DHT22;9206;50.994;4.538;2023-03-14T16:03:18;6.90;99.90
18163;DHT22;9206;50.994;4.538;2023-03-14T16:06:10;6.70;99.90
18163;DHT22;9206;50.994;4.538;2023-03-14T16:08:59;6.70;99.90
18163;DHT22;9206;50.994;4.538;2023-03-14T16:11:50;6.70;99.90
18163;DHT22;9206;50.994;4.538;2023-03-14T16:14:43;6.70;99.90
18163;DHT22;9206;50.994;4.538;2023-03-14T16:17:30;6.60;99.90
18163;DHT22;9206;50.994;4.538;2023-03-14T16:20:19;6.60;99.90
18163;DHT22;9206;50.994;4.538;2023-03-14T16:23:08;6.60;99.90
18163;DHT22;9206;50.994;4.538;2023-03-14T16:25:58;6.60;99.90
18163;DHT22;9206;50.994;4.538;2023-03-14T16:28:48;6.50;99.90
18163;DHT22;9206;50.994;4.538;2023-03-14T16:31:38;6.50;99.90
18163;DHT22;9206;50.994;4.538;2023-03-14T16:34:33;6.50;99.90
18163;DHT22;9206;50.994;4.538;2023-03-14T16:37:34;6.50;99.90
18163;DHT22;9206;50.994;4.538;2023-03-14T16:40:27;6.50;99.90
18163;DHT22;9206;50.994;4.538;2023-03-14T16:43:22;6.40;99.90
18163;DHT22;9206;50.994;4.538;2023-03-14T16:46:17;6.40;99.90
18163;DHT22;9206;50.994;4.538;2023-03-14T16:49:10;6.40;99.90
18163;DHT22;9206;50.994;4.538;2023-03-14T16:52:01;6.40;99.90
18163;DHT22;9206;50.994;4.538;2023-03-14T16:54:49;6.40;99.90
18163;DHT22;9206;50.994;4.538;2023-03-14T16:57:40;6.40;99.90
18163;DHT22;9206;50.994;4.538;2023-03-14T17:00:35;6.40;99.90
18163;DHT22;9206;50.994;4.538;2023-03-14T17:03:22;6.40;99.90
18163;DHT22;9206;50.994;4.538;2023-03-14T17:06:16;6.30;99.90
18163;DHT22;9206;50.994;4.538;2023-03-14T17:09:05;6.20;99.90
18163;DHT22;9206;50.994;4.538;2023-03-14T17:11:54;6.20;99.90
18163;DHT22;9206;50.994;4.538;2023-03-14T17:14:45;6.20;99.90
18163;DHT22;9206;50.994;4.538;2023-03-14T17:17:37;6.20;99.90
18163;DHT22;9206;50.994;4.538;2023-03-14T17:20:27;6.10;99.90
18163;DHT22;9206;50.994;4.538;2023-03-14T17:23:16;6.00;99.90
18163;DHT22;9206;50.994;4.538;2023-03-14T17:26:03;5.90;99.90
18163;DHT22;9206;50.994;4.538;2023-03-14T17:28:52;5.90;99.90
18163;DHT22;9206;50.994;4.538;2023-03-14T17:31:49;5.90;99.90
18163;DHT22;9206;50.994;4.538;2023-03-14T17:34:38;5.80;99.90
18163;DHT22;9206;50.994;4.538;2023-03-14T17:37:27;5.80;99.90
18163;DHT22;9206;50.994;4.538;2023-03-14T17:40:15;5.70;99.90
18163;DHT22;9206;50.994;4.538;2023-03-14T17:43:03;5.60;99.90
18163;DHT22;9206;50.994;4.538;2023-03-14T17:45:58;5.60;99.90
18163;DHT22;9206;50.994;4.538;2023-03-14T17:48:48;5.50;99.90
18163;DHT22;9206;50.994;4.538;2023-03-14T17:51:42;5.40;99.90
18163;DHT22;9206;50.994;4.538;2023-03-14T17:54:29;5.40;99.90
18163;DHT22;9206;50.994;4.538;2023-03-14T17:57:18;5.30;99.90
18163;DHT22;9206;50.994;4.538;2023-03-14T18:00:12;5.20;99.90
18163;DHT22;9206;50.994;4.538;2023-03-14T18:03:03;5.10;99.90
18163;DHT22;9206;50.994;4.538;2023-03-14T18:05:51;5.00;99.90
18163;DHT22;9206;50.994;4.538;2023-03-14T18:08:43;4.90;99.90
18163;DHT22;9206;50.994;4.538;2023-03-14T18:11:34;4.90;99.90
18163;DHT22;9206;50.994;4.538;2023-03-14T18:14:23;4.70;99.90
18163;DHT22;9206;50.994;4.538;2023-03-14T18:17:11;4.60;99.90
18163;DHT22;9206;50.994;4.538;2023-03-14T18:20:03;4.50;99.90
18163;DHT22;9206;50.994;4.538;2023-03-14T18:22:56;4.40;99.90
18163;DHT22;9206;50.994;4.538;2023-03-14T18:25:52;4.30;99.90
18163;DHT22;9206;50.994;4.538;2023-03-14T18:28:40;4.20;99.90
18163;DHT22;9206;50.994;4.538;2023-03-14T18:31:27;4.20;99.90
18163;DHT22;9206;50.994;4.538;2023-03-14T18:34:15;4.10;99.90
18163;DHT22;9206;50.994;4.538;2023-03-14T18:37:03;4.10;99.90
18163;DHT22;9206;50.994;4.538;2023-03-14T18:39:51;4.10;99.90
18163;DHT22;9206;50.994;4.538;2023-03-14T18:42:45;4.00;99.90
18163;DHT22;9206;50.994;4.538;2023-03-14T18:45:38;4.00;99.90
18163;DHT22;9206;50.994;4.538;2023-03-14T18:48:31;4.10;99.90
18163;DHT22;9206;50.994;4.538;2023-03-14T18:51:19;4.20;99.90
18163;DHT22;9206;50.994;4.538;2023-03-14T18:54:08;4.30;99.90